createdAt,value
2018-01-28T00:02:03.207Z,6.50
2018-01-28T00:04:38.306Z,6.54
2018-01-28T00:07:13.285Z,6.57
2018-01-28T00:09:48.458Z,6.63
2018-01-28T00:12:23.433Z,6.66
2018-01-28T00:14:58.589Z,6.67
2018-01-28T00:17:33.508Z,6.65
2018-01-28T00:20:08.698Z,6.69
2018-01-28T00:22:43.702Z,6.67
2018-01-28T00:25:19.221Z,6.62
2018-01-28T00:27:54.216Z,6.61
2018-01-28T00:30:29.421Z,6.60
2018-01-28T00:33:04.344Z,6.56
2018-01-28T00:35:38.712Z,6.60
2018-01-28T00:38:14.299Z,6.67
2018-01-28T00:40:49.242Z,6.69
2018-01-28T00:43:24.479Z,6.67
2018-01-28T00:45:59.475Z,6.61
2018-01-28T00:48:34.129Z,6.59
2018-01-28T00:51:09.285Z,6.60
2018-01-28T00:53:44.085Z,6.63
2018-01-28T00:56:18.795Z,6.62
2018-01-28T00:58:54.417Z,6.64
2018-01-28T01:01:29.752Z,6.63
2018-01-28T01:04:04.924Z,6.63
2018-01-28T01:06:40.265Z,6.66
2018-01-28T01:09:15.006Z,6.69
2018-01-28T01:11:50.365Z,6.71
2018-01-28T01:14:25.256Z,6.69
2018-01-28T01:17:00.264Z,6.69
2018-01-28T01:19:35.424Z,6.70
2018-01-28T01:22:10.283Z,6.73
2018-01-28T01:24:45.248Z,6.75
2018-01-28T01:27:21.609Z,6.76
2018-01-28T01:29:56.626Z,6.73
2018-01-28T01:32:31.450Z,6.69
2018-01-28T01:35:06.304Z,6.66
2018-01-28T01:37:41.409Z,6.64
2018-01-28T01:40:16.240Z,6.62
2018-01-28T01:42:51.173Z,6.62
2018-01-28T01:45:25.279Z,6.60
2018-01-28T01:48:00.503Z,6.59
2018-01-28T01:50:35.583Z,6.61
2018-01-28T01:53:10.857Z,6.62
2018-01-28T01:55:45.860Z,6.63
2018-01-28T01:58:21.973Z,6.69
2018-01-28T02:00:57.049Z,6.72
2018-01-28T02:03:32.608Z,6.73
2018-01-28T02:06:07.175Z,6.69
2018-01-28T02:08:42.419Z,6.66
2018-01-28T02:11:17.719Z,6.68
2018-01-28T02:13:52.997Z,6.70
2018-01-28T02:16:28.183Z,6.71
2018-01-28T02:19:03.518Z,6.69
2018-01-28T02:21:38.693Z,6.67
2018-01-28T02:24:13.601Z,6.66
2018-01-28T02:26:48.533Z,6.65
2018-01-28T02:29:23.733Z,6.65
2018-01-28T02:31:58.519Z,6.67
2018-01-28T02:34:33.822Z,6.68
2018-01-28T02:37:08.989Z,6.70
2018-01-28T02:39:43.876Z,6.74
2018-01-28T02:42:19.089Z,6.79
2018-01-28T02:44:53.847Z,6.81
2018-01-28T02:47:28.958Z,6.81
2018-01-28T02:50:04.158Z,6.80
2018-01-28T02:52:39.634Z,6.86
2018-01-28T02:55:14.589Z,6.88
2018-01-28T02:57:49.697Z,6.93
2018-01-28T03:00:24.048Z,6.93
2018-01-28T03:02:58.920Z,6.88
2018-01-28T03:05:33.627Z,6.86
2018-01-28T03:08:08.405Z,6.89
2018-01-28T03:10:43.590Z,6.89
2018-01-28T03:13:18.675Z,6.90
2018-01-28T03:15:53.940Z,6.87
2018-01-28T03:18:28.932Z,6.89
2018-01-28T03:21:04.128Z,6.91
2018-01-28T03:23:39.112Z,6.93
2018-01-28T03:26:14.756Z,6.94
2018-01-28T03:28:49.772Z,7.00
2018-01-28T03:31:24.544Z,7.01
2018-01-28T03:33:59.132Z,7.00
2018-01-28T03:36:34.336Z,7.05
2018-01-28T03:39:09.440Z,7.07
2018-01-28T03:41:44.629Z,7.11
2018-01-28T03:44:19.816Z,7.13
2018-01-28T03:46:54.157Z,7.19
2018-01-28T03:49:29.903Z,7.16
2018-01-28T03:52:04.340Z,7.19
2018-01-28T03:54:39.612Z,7.20
2018-01-28T03:57:14.875Z,7.23
2018-01-28T03:59:50.088Z,7.25
2018-01-28T04:02:25.839Z,7.29
2018-01-28T04:05:00.768Z,7.31
2018-01-28T04:07:35.808Z,7.33
2018-01-28T04:10:11.107Z,7.32
2018-01-28T04:12:46.644Z,7.32
2018-01-28T04:15:22.057Z,7.34
2018-01-28T04:17:56.792Z,7.37
2018-01-28T04:20:31.957Z,7.36
2018-01-28T04:23:06.818Z,7.37
2018-01-28T04:25:41.842Z,7.44
2018-01-28T04:28:17.137Z,7.40
2018-01-28T04:30:52.217Z,7.44
2018-01-28T04:33:27.737Z,7.48
2018-01-28T04:36:02.828Z,7.49
2018-01-28T04:38:38.163Z,7.54
2018-01-28T04:41:12.553Z,7.52
2018-01-28T04:43:47.375Z,7.53
2018-01-28T04:46:22.735Z,7.55
2018-01-28T04:48:57.700Z,7.60
2018-01-28T04:51:33.300Z,7.60
2018-01-28T04:54:08.101Z,7.58
2018-01-28T04:56:43.687Z,7.59
2018-01-28T04:59:18.404Z,7.64
2018-01-28T05:01:54.974Z,7.68
2018-01-28T05:04:29.172Z,7.74
2018-01-28T05:07:04.075Z,7.77
2018-01-28T05:09:39.071Z,7.80
2018-01-28T05:12:14.202Z,7.87
2018-01-28T05:14:49.341Z,7.90
2018-01-28T05:17:24.199Z,7.90
2018-01-28T05:19:58.835Z,7.88
2018-01-28T05:22:33.143Z,7.91
2018-01-28T05:25:08.208Z,7.93
2018-01-28T05:27:43.237Z,7.99
2018-01-28T05:30:18.251Z,8.06
2018-01-28T05:32:53.197Z,8.10
2018-01-28T05:35:28.192Z,8.14
2018-01-28T05:38:03.474Z,8.17
2018-01-28T05:40:38.521Z,8.19
2018-01-28T05:43:13.017Z,8.24
2018-01-28T05:45:48.287Z,8.27
2018-01-28T05:48:23.503Z,8.31
2018-01-28T05:50:58.583Z,8.32
2018-01-28T05:53:34.158Z,8.33
2018-01-28T05:56:09.040Z,8.36
2018-01-28T05:58:44.192Z,8.40
2018-01-28T06:01:19.307Z,8.40
2018-01-28T06:03:54.476Z,8.42
2018-01-28T06:06:29.989Z,8.38
2018-01-28T06:09:04.403Z,8.42
2018-01-28T06:11:38.971Z,8.46
2018-01-28T06:14:14.331Z,8.52
2018-01-28T06:16:49.352Z,8.59
2018-01-28T06:19:24.489Z,8.61
2018-01-28T06:21:59.382Z,8.60
2018-01-28T06:24:34.397Z,8.61
2018-01-28T06:27:09.232Z,8.64
2018-01-28T06:29:44.529Z,8.60
2018-01-28T06:32:19.534Z,8.60
2018-01-28T06:34:54.817Z,8.59
2018-01-28T06:37:29.402Z,8.61
2018-01-28T06:40:03.965Z,8.62
2018-01-28T06:42:39.146Z,8.61
2018-01-28T06:45:13.411Z,8.65
2018-01-28T06:47:48.424Z,8.68
2018-01-28T06:50:24.612Z,8.66
2018-01-28T06:52:59.532Z,8.66
2018-01-28T06:55:34.727Z,8.64
2018-01-28T06:58:10.777Z,8.68
2018-01-28T07:00:48.068Z,8.68
2018-01-28T07:03:22.728Z,8.69
2018-01-28T07:05:58.115Z,8.70
2018-01-28T07:08:33.315Z,8.76
2018-01-28T07:11:08.216Z,8.77
2018-01-28T07:13:42.652Z,8.82
2018-01-28T07:16:18.198Z,8.79
2018-01-28T07:18:53.305Z,8.82
2018-01-28T07:21:28.163Z,8.85
2018-01-28T07:24:05.024Z,8.84
2018-01-28T07:26:39.975Z,8.84
2018-01-28T07:29:14.785Z,8.87
2018-01-28T07:31:50.383Z,8.88
2018-01-28T07:34:25.612Z,8.88
2018-01-28T07:37:00.429Z,8.89
2018-01-28T07:39:35.665Z,8.90
2018-01-28T07:42:10.654Z,8.86
2018-01-28T07:44:45.752Z,8.86
2018-01-28T07:47:22.277Z,8.86
2018-01-28T07:49:57.213Z,8.93
2018-01-28T07:52:32.628Z,8.91
2018-01-28T07:55:07.567Z,8.88
2018-01-28T07:57:42.092Z,8.91
2018-01-28T08:00:17.405Z,8.92
2018-01-28T08:02:52.417Z,8.95
2018-01-28T08:05:27.612Z,9.00
2018-01-28T08:08:02.136Z,9.01
2018-01-28T08:10:52.015Z,9.04
2018-01-28T08:13:32.405Z,9.02
2018-01-28T08:16:07.441Z,9.00
2018-01-28T08:18:42.341Z,8.96
2018-01-28T08:21:17.275Z,8.96
2018-01-28T08:23:52.314Z,8.96
2018-01-28T08:26:28.860Z,9.00
2018-01-28T08:29:18.509Z,8.97
2018-01-28T08:31:53.796Z,8.97
2018-01-28T08:34:28.544Z,9.01
2018-01-28T08:37:03.828Z,9.08
2018-01-28T08:39:38.952Z,9.10
2018-01-28T08:42:13.729Z,9.13
2018-01-28T08:44:48.840Z,9.17
2018-01-28T08:47:23.716Z,9.22
2018-01-28T08:49:58.818Z,9.25
2018-01-28T08:52:34.392Z,9.27
2018-01-28T08:55:09.223Z,9.32
2018-01-28T08:57:44.472Z,9.37
2018-01-28T09:00:19.567Z,9.40
2018-01-28T09:02:54.531Z,9.41
2018-01-28T09:05:29.840Z,9.47
2018-01-28T09:08:04.805Z,9.44
2018-01-28T09:10:39.792Z,9.42
2018-01-28T09:13:14.971Z,9.45
2018-01-28T09:15:49.972Z,9.47
2018-01-28T09:18:25.131Z,9.51
2018-01-28T09:21:00.573Z,9.57
2018-01-28T09:23:35.584Z,9.65
2018-01-28T09:26:10.081Z,9.69
2018-01-28T09:28:45.509Z,9.73
2018-01-28T09:31:20.504Z,9.75
2018-01-28T09:33:55.643Z,9.83
2018-01-28T09:36:30.526Z,9.89
2018-01-28T09:39:05.069Z,9.96
2018-01-28T09:41:40.308Z,10.01
2018-01-28T09:44:15.562Z,9.99
2018-01-28T09:46:50.646Z,9.98
2018-01-28T09:49:25.710Z,10.00
2018-01-28T09:52:00.217Z,10.04
2018-01-28T09:54:35.764Z,10.05
2018-01-28T09:57:10.650Z,10.05
2018-01-28T09:59:45.644Z,10.05
2018-01-28T10:02:20.828Z,10.17
2018-01-28T10:04:55.943Z,10.21
2018-01-28T10:07:30.494Z,10.27
2018-01-28T10:10:04.750Z,10.34
2018-01-28T10:12:39.239Z,10.41
2018-01-28T10:15:14.712Z,10.46
2018-01-28T10:17:49.820Z,10.51
2018-01-28T10:20:25.037Z,10.54
2018-01-28T10:22:59.707Z,10.54
2018-01-28T10:25:34.943Z,10.57
2018-01-28T10:28:09.956Z,10.60
2018-01-28T10:30:45.028Z,10.61
2018-01-28T10:33:19.806Z,10.52
2018-01-28T10:35:54.779Z,10.48
2018-01-28T10:38:30.064Z,10.51
2018-01-28T10:41:05.264Z,10.53
2018-01-28T10:43:40.327Z,10.52
2018-01-28T10:46:15.208Z,10.48
2018-01-28T10:48:50.366Z,10.51
2018-01-28T10:51:25.824Z,10.60
2018-01-28T10:54:00.869Z,10.66
2018-01-28T10:56:35.747Z,10.72
2018-01-28T10:59:10.917Z,10.71
2018-01-28T11:01:45.836Z,10.72
2018-01-28T11:04:21.127Z,10.75
2018-01-28T11:06:56.220Z,10.76
2018-01-28T11:09:31.835Z,10.76
2018-01-28T11:12:06.845Z,10.80
2018-01-28T11:14:41.897Z,10.82
2018-01-28T11:17:16.783Z,10.84
2018-01-28T11:19:51.879Z,10.85
2018-01-28T11:22:26.541Z,10.79
2018-01-28T11:25:01.632Z,10.76
2018-01-28T11:27:37.202Z,10.73
2018-01-28T11:30:11.872Z,10.78
2018-01-28T11:32:46.743Z,10.80
2018-01-28T11:35:22.887Z,10.84
2018-01-28T11:37:57.831Z,10.86
2018-01-28T11:40:32.814Z,10.88
2018-01-28T11:43:07.512Z,10.84
2018-01-28T11:45:42.307Z,10.88
2018-01-28T11:48:16.866Z,10.92
2018-01-28T11:50:51.872Z,10.95
2018-01-28T11:53:27.156Z,10.99
2018-01-28T11:56:01.957Z,11.06
2018-01-28T11:58:37.265Z,11.13
2018-01-28T12:01:12.081Z,11.19
2018-01-28T12:03:47.079Z,11.16
2018-01-28T12:06:23.368Z,11.20
2018-01-28T12:08:58.268Z,11.18
2018-01-28T12:11:33.211Z,11.19
2018-01-28T12:14:08.069Z,11.16
2018-01-28T12:16:42.874Z,11.16
2018-01-28T12:19:18.000Z,11.14
2018-01-28T12:21:52.605Z,11.17
2018-01-28T12:24:27.537Z,11.21
2018-01-28T12:27:02.433Z,11.22
2018-01-28T12:29:37.008Z,11.23
2018-01-28T12:32:11.565Z,11.26
2018-01-28T12:34:46.896Z,11.26
2018-01-28T12:37:23.127Z,11.25
2018-01-28T12:39:57.827Z,11.29
2018-01-28T12:42:33.045Z,11.32
2018-01-28T12:45:07.817Z,11.39
2018-01-28T12:47:43.107Z,11.50
2018-01-28T12:50:18.124Z,11.56
2018-01-28T12:52:53.156Z,11.67
2018-01-28T12:55:28.358Z,11.65
2018-01-28T12:58:03.156Z,11.74
2018-01-28T13:00:38.341Z,11.83
2018-01-28T13:03:13.433Z,11.91
2018-01-28T13:05:47.848Z,11.93
2018-01-28T13:08:23.335Z,11.99
2018-01-28T13:10:58.262Z,11.99
2018-01-28T13:13:33.612Z,11.91
2018-01-28T13:16:08.716Z,11.90
2018-01-28T13:18:44.102Z,11.87
2018-01-28T13:21:19.194Z,11.88
2018-01-28T13:23:53.557Z,11.81
2018-01-28T13:26:29.094Z,11.77
2018-01-28T13:29:03.688Z,11.68
2018-01-28T13:31:38.660Z,11.67
2018-01-28T13:34:14.211Z,11.70
2018-01-28T13:36:49.388Z,11.71
2018-01-28T13:39:24.692Z,11.70
2018-01-28T13:41:59.580Z,11.69
2018-01-28T13:44:34.640Z,11.67
2018-01-28T13:47:10.216Z,11.65
2018-01-28T13:49:45.163Z,11.62
2018-01-28T13:52:20.352Z,11.64
2018-01-28T13:54:55.144Z,11.64
2018-01-28T13:57:30.312Z,11.65
2018-01-28T14:00:04.924Z,11.71
2018-01-28T14:02:39.590Z,11.70
2018-01-28T14:05:14.367Z,11.74
2018-01-28T14:07:49.131Z,11.73
2018-01-28T14:10:24.560Z,11.75
2018-01-28T14:12:59.531Z,11.76
2018-01-28T14:15:34.092Z,11.70
2018-01-28T14:18:08.773Z,11.71
2018-01-28T14:20:43.175Z,11.73
2018-01-28T14:23:18.200Z,11.69
2018-01-28T14:25:53.483Z,11.73
2018-01-28T14:28:28.448Z,11.77
2018-01-28T14:31:03.199Z,11.82
2018-01-28T14:33:37.433Z,11.85
2018-01-28T14:36:12.468Z,11.89
2018-01-28T14:38:47.470Z,11.86
2018-01-28T14:41:23.725Z,11.77
2018-01-28T14:43:58.531Z,11.77
2018-01-28T14:46:33.528Z,11.74
2018-01-28T14:49:08.453Z,11.69
2018-01-28T14:51:43.444Z,11.67
2018-01-28T14:54:18.348Z,11.73
2018-01-28T14:56:53.453Z,11.79
2018-01-28T14:59:28.641Z,11.78
2018-01-28T15:02:03.924Z,11.78
2018-01-28T15:04:38.678Z,11.80
2018-01-28T15:07:13.857Z,11.77
2018-01-28T15:09:49.427Z,11.76
2018-01-28T15:12:24.215Z,11.75
2018-01-28T15:14:59.704Z,11.75
2018-01-28T15:17:34.776Z,11.73
2018-01-28T15:20:09.458Z,11.73
2018-01-28T15:22:43.936Z,11.74
2018-01-28T15:25:18.928Z,11.76
2018-01-28T15:27:54.407Z,11.78
2018-01-28T15:30:29.461Z,11.73
2018-01-28T15:33:04.270Z,11.70
2018-01-28T15:35:39.493Z,11.73
2018-01-28T15:38:14.536Z,11.71
2018-01-28T15:40:49.567Z,11.71
2018-01-28T15:43:24.780Z,11.70
2018-01-28T15:45:59.984Z,11.73
2018-01-28T15:48:35.732Z,11.71
2018-01-28T15:51:10.567Z,11.67
2018-01-28T15:53:45.395Z,11.63
2018-01-28T15:56:20.594Z,11.59
2018-01-28T15:58:55.617Z,11.61
2018-01-28T16:01:30.299Z,11.62
2018-01-28T16:04:05.349Z,11.61
2018-01-28T16:06:40.700Z,11.66
2018-01-28T16:09:15.197Z,11.65
2018-01-28T16:11:50.644Z,11.60
2018-01-28T16:14:25.661Z,11.58
2018-01-28T16:17:00.573Z,11.53
2018-01-28T16:19:35.647Z,11.50
2018-01-28T16:22:10.525Z,11.49
2018-01-28T16:24:45.236Z,11.49
2018-01-28T16:27:20.724Z,11.44
2018-01-28T16:29:55.623Z,11.41
2018-01-28T16:32:30.976Z,11.41
2018-01-28T16:35:05.651Z,11.41
2018-01-28T16:37:41.033Z,11.40
2018-01-28T16:40:15.788Z,11.41
2018-01-28T16:42:50.896Z,11.41
2018-01-28T16:45:25.580Z,11.37
2018-01-28T16:48:00.367Z,11.34
2018-01-28T16:50:35.715Z,11.33
2018-01-28T16:53:10.667Z,11.23
2018-01-28T16:55:45.668Z,11.24
2018-01-28T16:58:20.830Z,11.27
2018-01-28T17:00:55.577Z,11.27
2018-01-28T17:03:30.641Z,11.25
2018-01-28T17:06:05.699Z,11.19
2018-01-28T17:08:40.949Z,11.18
2018-01-28T17:11:15.713Z,11.16
2018-01-28T17:13:50.492Z,11.19
2018-01-28T17:16:25.964Z,11.20
2018-01-28T17:19:01.089Z,11.17
2018-01-28T17:21:36.077Z,11.23
2018-01-28T17:24:11.207Z,11.27
2018-01-28T17:26:46.725Z,11.27
2018-01-28T17:29:21.595Z,11.26
2018-01-28T17:31:56.820Z,11.15
2018-01-28T17:34:31.875Z,11.15
2018-01-28T17:37:06.744Z,11.18
2018-01-28T17:39:41.576Z,11.16
2018-01-28T17:42:16.847Z,11.15
2018-01-28T17:44:51.861Z,11.15
2018-01-28T17:47:26.770Z,11.12
2018-01-28T17:50:02.002Z,11.17
2018-01-28T17:52:37.136Z,11.19
2018-01-28T17:55:12.428Z,11.15
2018-01-28T17:57:47.895Z,11.15
2018-01-28T18:00:24.229Z,11.12
2018-01-28T18:02:59.132Z,11.12
2018-01-28T18:05:34.175Z,11.10
2018-01-28T18:08:09.141Z,11.10
2018-01-28T18:10:44.126Z,11.08
2018-01-28T18:13:18.837Z,11.07
2018-01-28T18:15:53.946Z,11.09
2018-01-28T18:18:28.937Z,11.07
2018-01-28T18:21:03.641Z,11.13
2018-01-28T18:23:39.212Z,11.16
2018-01-28T18:26:14.004Z,11.17
2018-01-28T18:28:49.229Z,11.15
2018-01-28T18:31:24.368Z,11.13
2018-01-28T18:33:59.158Z,11.10
2018-01-28T18:36:34.160Z,11.12
2018-01-28T18:39:09.048Z,11.16
2018-01-28T18:41:44.077Z,11.15
2018-01-28T18:44:19.180Z,11.14
2018-01-28T18:46:54.146Z,11.13
2018-01-28T18:49:29.214Z,11.17
2018-01-28T18:52:04.304Z,11.20
2018-01-28T18:54:39.292Z,11.19
2018-01-28T18:57:14.029Z,11.27
2018-01-28T18:59:48.941Z,11.26
2018-01-28T19:02:25.504Z,11.16
2018-01-28T19:05:00.093Z,11.18
2018-01-28T19:07:35.650Z,11.14
2018-01-28T19:10:10.120Z,11.16
2018-01-28T19:12:44.560Z,11.16
2018-01-28T19:15:19.255Z,11.14
2018-01-28T19:17:54.032Z,11.12
2018-01-28T19:20:28.998Z,11.13
2018-01-28T19:23:04.329Z,11.07
2018-01-28T19:25:39.419Z,11.14
2018-01-28T19:28:14.235Z,11.13
2018-01-28T19:30:48.684Z,11.10
2018-01-28T19:33:24.454Z,11.09
2018-01-28T19:35:59.077Z,11.08
2018-01-28T19:38:34.398Z,11.06
2018-01-28T19:41:09.262Z,11.10
2018-01-28T19:43:44.424Z,11.15
2018-01-28T19:46:19.444Z,11.14
2018-01-28T19:48:54.140Z,11.11
2018-01-28T19:51:29.174Z,11.12
2018-01-28T19:54:04.276Z,11.11
2018-01-28T19:56:39.463Z,11.09
2018-01-28T19:59:14.630Z,11.12
2018-01-28T20:01:49.693Z,11.12
2018-01-28T20:04:25.297Z,11.07
2018-01-28T20:07:00.156Z,11.05
2018-01-28T20:09:35.441Z,11.07
2018-01-28T20:12:10.166Z,11.08
2018-01-28T20:14:45.466Z,11.07
2018-01-28T20:17:20.276Z,11.11
2018-01-28T20:19:55.239Z,11.18
2018-01-28T20:22:30.482Z,11.15
2018-01-28T20:25:05.221Z,11.15
2018-01-28T20:27:40.486Z,11.13
2018-01-28T20:30:14.870Z,11.16
2018-01-28T20:32:50.529Z,11.18
2018-01-28T20:35:25.224Z,11.13
2018-01-28T20:38:00.289Z,11.14
2018-01-28T20:40:35.707Z,11.14
2018-01-28T20:43:10.502Z,11.12
2018-01-28T20:45:45.412Z,11.15
2018-01-28T20:48:20.672Z,11.20
2018-01-28T20:50:55.771Z,11.24
2018-01-28T20:53:30.732Z,11.25
2018-01-28T20:56:05.717Z,11.25
2018-01-28T20:58:40.587Z,11.20
2018-01-28T21:01:15.274Z,11.16
2018-01-28T21:03:50.380Z,11.16
2018-01-28T21:06:24.776Z,11.13
2018-01-28T21:09:00.428Z,11.17
2018-01-28T21:11:35.645Z,11.18
2018-01-28T21:14:10.538Z,11.13
2018-01-28T21:16:45.381Z,11.11
2018-01-28T21:19:20.695Z,11.14
2018-01-28T21:21:56.272Z,11.17
2018-01-28T21:24:31.406Z,11.16
2018-01-28T21:27:06.520Z,11.13
2018-01-28T21:29:41.514Z,11.13
2018-01-28T21:32:16.443Z,11.09
2018-01-28T21:34:51.660Z,11.03
2018-01-28T21:37:26.456Z,11.15
2018-01-28T21:40:01.439Z,11.24
2018-01-28T21:42:37.022Z,11.25
2018-01-28T21:45:11.681Z,11.25
2018-01-28T21:47:46.638Z,11.22
2018-01-28T21:50:21.385Z,11.18
2018-01-28T21:52:56.463Z,11.18
2018-01-28T21:55:31.541Z,11.18
2018-01-28T21:58:06.471Z,11.17
2018-01-28T22:00:41.661Z,11.21
2018-01-28T22:03:16.561Z,11.20
2018-01-28T22:05:51.556Z,11.19
2018-01-28T22:08:26.539Z,11.18
2018-01-28T22:11:01.575Z,11.16
2018-01-28T22:13:36.852Z,11.11
2018-01-28T22:16:11.493Z,11.13
2018-01-28T22:18:46.016Z,11.14
2018-01-28T22:21:21.402Z,11.15
2018-01-28T22:23:56.500Z,11.14
2018-01-28T22:26:31.986Z,11.12
2018-01-28T22:29:06.900Z,11.15
2018-01-28T22:31:42.159Z,11.16
2018-01-28T22:34:16.944Z,11.16
2018-01-28T22:36:51.845Z,11.19
2018-01-28T22:39:26.535Z,11.16
2018-01-28T22:42:01.632Z,11.16
2018-01-28T22:44:36.750Z,11.13
2018-01-28T22:47:11.831Z,11.13
2018-01-28T22:49:46.944Z,11.16
2018-01-28T22:52:21.956Z,11.18
2018-01-28T22:54:57.148Z,11.18
2018-01-28T22:57:31.958Z,11.23
2018-01-28T23:00:07.267Z,11.25
2018-01-28T23:02:42.657Z,11.24
2018-01-28T23:05:17.641Z,11.30
2018-01-28T23:07:52.771Z,11.28
2018-01-28T23:10:28.055Z,11.24
2018-01-28T23:13:03.552Z,11.19
2018-01-28T23:15:38.617Z,11.21
2018-01-28T23:18:13.811Z,11.20
2018-01-28T23:20:48.848Z,11.18
2018-01-28T23:23:25.757Z,11.17
2018-01-28T23:26:00.796Z,11.20
2018-01-28T23:28:36.197Z,11.24
2018-01-28T23:31:11.026Z,11.26
2018-01-28T23:33:46.240Z,11.26
2018-01-28T23:36:21.848Z,11.24
2018-01-28T23:38:56.941Z,11.21
2018-01-28T23:41:32.026Z,11.24
2018-01-28T23:44:06.596Z,11.26
2018-01-28T23:46:41.324Z,11.26
2018-01-28T23:49:15.821Z,11.29
2018-01-28T23:51:50.926Z,11.30
2018-01-28T23:54:25.890Z,11.29
2018-01-28T23:57:00.797Z,11.30
2018-01-28T23:59:35.867Z,11.32
